createdAt,value
2019-01-23T00:01:40.890Z,79.69
2019-01-23T00:04:10.579Z,79.44
2019-01-23T00:06:40.106Z,79.11
2019-01-23T00:09:09.735Z,79.34
2019-01-23T00:11:39.304Z,79.09
2019-01-23T00:14:08.824Z,78.84
2019-01-23T00:16:38.349Z,78.54
2019-01-23T00:19:07.885Z,76.97
2019-01-23T00:21:37.403Z,76.87
2019-01-23T00:24:06.991Z,77.40
2019-01-23T00:26:36.512Z,77.78
2019-01-23T00:29:06.117Z,77.75
2019-01-23T00:31:35.657Z,77.58
2019-01-23T00:34:05.367Z,77.70
2019-01-23T00:36:34.871Z,77.87
2019-01-23T00:39:06.021Z,77.55
2019-01-23T00:41:35.537Z,76.83
2019-01-23T00:44:05.431Z,76.79
2019-01-23T00:46:35.073Z,76.58
2019-01-23T00:49:04.881Z,76.25
2019-01-23T00:51:34.397Z,76.24
2019-01-23T00:54:04.171Z,76.36
2019-01-23T00:56:33.671Z,76.49
2019-01-23T00:59:03.974Z,76.33
2019-01-23T01:01:33.758Z,76.12
2019-01-23T01:04:03.295Z,76.00
2019-01-23T01:06:32.828Z,75.67
2019-01-23T01:09:02.390Z,75.14
2019-01-23T01:11:31.902Z,74.80
2019-01-23T01:14:01.429Z,74.29
2019-01-23T01:16:30.996Z,72.86
2019-01-23T01:19:00.510Z,70.54
2019-01-23T01:21:30.078Z,68.67
2019-01-23T01:23:59.601Z,66.40
2019-01-23T01:26:29.189Z,62.00
2019-01-23T01:28:58.807Z,60.12
2019-01-23T01:31:28.303Z,58.50
2019-01-23T01:33:57.795Z,57.50
2019-01-23T01:36:27.351Z,57.10
2019-01-23T01:38:57.020Z,56.65
2019-01-23T01:41:26.516Z,56.46
2019-01-23T01:43:56.083Z,56.76
2019-01-23T01:46:25.600Z,56.68
2019-01-23T01:48:55.123Z,57.83
2019-01-23T01:51:24.671Z,58.21
2019-01-23T01:53:54.173Z,57.84
2019-01-23T01:56:23.677Z,57.54
2019-01-23T01:58:53.223Z,57.18
2019-01-23T02:01:22.724Z,56.20
2019-01-23T02:03:52.226Z,56.14
2019-01-23T02:06:21.789Z,55.79
2019-01-23T02:08:51.284Z,56.21
2019-01-23T02:11:20.785Z,57.82
2019-01-23T02:13:50.317Z,57.74
2019-01-23T02:16:19.818Z,55.92
2019-01-23T02:18:49.317Z,54.53
2019-01-23T02:21:18.997Z,54.81
2019-01-23T02:23:48.558Z,54.27
2019-01-23T02:26:18.058Z,53.99
2019-01-23T02:28:47.567Z,53.34
2019-01-23T02:31:17.135Z,50.91
2019-01-23T02:33:46.682Z,45.95
2019-01-23T02:36:16.269Z,44.44
2019-01-23T02:38:45.802Z,44.37
2019-01-23T02:41:15.334Z,44.45
2019-01-23T02:43:44.932Z,44.89
2019-01-23T02:46:14.661Z,44.05
2019-01-23T02:48:44.195Z,43.22
2019-01-23T02:51:13.784Z,43.09
2019-01-23T02:53:43.315Z,42.92
2019-01-23T02:56:12.853Z,42.59
2019-01-23T02:58:42.424Z,42.62
2019-01-23T03:01:11.955Z,43.24
2019-01-23T03:03:41.514Z,43.04
2019-01-23T03:06:11.040Z,44.28
2019-01-23T03:08:40.561Z,44.37
2019-01-23T03:11:10.162Z,44.65
2019-01-23T03:13:39.668Z,44.42
2019-01-23T03:16:09.178Z,45.34
2019-01-23T03:18:38.743Z,45.27
2019-01-23T03:21:08.243Z,45.39
2019-01-23T03:23:37.819Z,45.63
2019-01-23T03:26:07.365Z,45.52
2019-01-23T03:28:36.868Z,45.90
2019-01-23T03:31:06.381Z,45.24
2019-01-23T03:33:35.927Z,45.22
2019-01-23T03:36:05.910Z,45.90
2019-01-23T03:38:35.454Z,45.87
2019-01-23T03:41:05.079Z,45.95
2019-01-23T03:43:34.613Z,46.83
2019-01-23T03:46:04.199Z,46.91
2019-01-23T03:48:33.728Z,46.54
2019-01-23T03:51:03.267Z,46.01
2019-01-23T03:53:32.820Z,44.82
2019-01-23T03:56:02.382Z,43.72
2019-01-23T03:58:31.913Z,42.80
2019-01-23T04:01:01.543Z,42.32
2019-01-23T04:03:31.260Z,41.87
2019-01-23T04:06:00.784Z,41.35
2019-01-23T04:08:30.352Z,41.03
2019-01-23T04:10:59.897Z,40.29
2019-01-23T04:13:29.415Z,39.95
2019-01-23T04:15:58.988Z,42.25
2019-01-23T04:18:28.494Z,40.48
2019-01-23T04:20:58.012Z,40.73
2019-01-23T04:23:27.606Z,41.63
2019-01-23T04:25:57.120Z,42.07
2019-01-23T04:28:26.695Z,41.96
2019-01-23T04:30:56.682Z,42.01
2019-01-23T04:33:26.209Z,42.28
2019-01-23T04:35:55.794Z,42.55
2019-01-23T04:38:25.323Z,42.97
2019-01-23T04:40:54.843Z,42.56
2019-01-23T04:43:24.589Z,42.76
2019-01-23T04:45:54.116Z,42.64
2019-01-23T04:48:23.638Z,43.02
2019-01-23T04:51:07.540Z,33.90
2019-01-23T04:53:40.435Z,0.00
2019-01-23T04:56:09.969Z,0.00
2019-01-23T04:58:39.566Z,0.00
2019-01-23T05:01:09.096Z,0.00
2019-01-23T05:03:38.679Z,0.00
2019-01-23T05:06:08.442Z,0.00
2019-01-23T05:08:37.946Z,0.00
2019-01-23T05:11:07.545Z,0.00
2019-01-23T05:13:38.286Z,0.00
2019-01-23T05:16:08.196Z,0.00
2019-01-23T05:18:39.075Z,0.00
2019-01-23T05:21:08.591Z,0.00
2019-01-23T05:23:38.100Z,0.00
2019-01-23T05:26:07.673Z,0.00
2019-01-23T05:28:37.196Z,0.00
2019-01-23T05:31:07.079Z,0.00
2019-01-23T05:33:36.641Z,0.00
2019-01-23T05:36:06.249Z,0.00
2019-01-23T05:38:35.799Z,0.00
2019-01-23T05:41:05.644Z,0.00
2019-01-23T05:43:35.146Z,0.00
2019-01-23T05:46:04.793Z,0.00
2019-01-23T05:48:34.318Z,0.00
2019-01-23T05:51:04.731Z,0.00
2019-01-23T05:53:35.563Z,0.00
2019-01-23T05:56:05.060Z,0.00
2019-01-23T05:58:35.800Z,0.00
2019-01-23T06:01:05.604Z,0.00
2019-01-23T06:03:35.124Z,0.00
2019-01-23T06:06:05.543Z,0.00
2019-01-23T06:08:35.040Z,0.00
2019-01-23T06:11:04.541Z,0.00
2019-01-23T06:13:34.094Z,0.00
2019-01-23T06:16:03.610Z,0.00
2019-01-23T06:18:33.146Z,0.00
2019-01-23T06:21:04.029Z,0.00
2019-01-23T06:23:33.566Z,0.00
2019-01-23T06:26:03.147Z,0.00
2019-01-23T06:28:32.725Z,0.00
2019-01-23T06:31:02.218Z,0.00
2019-01-23T06:33:31.972Z,0.00
2019-01-23T06:36:01.485Z,0.00
2019-01-23T06:38:31.023Z,0.00
2019-01-23T06:41:00.607Z,0.00
2019-01-23T06:43:30.124Z,0.00
2019-01-23T06:45:59.624Z,0.00
2019-01-23T06:48:29.195Z,0.00
2019-01-23T06:50:58.731Z,0.00
2019-01-23T06:53:28.250Z,3.75
2019-01-23T06:55:57.804Z,25.81
2019-01-23T06:58:27.354Z,24.60
2019-01-23T07:00:56.877Z,24.78
2019-01-23T07:03:26.446Z,23.82
2019-01-23T07:05:55.960Z,23.53
2019-01-23T07:08:25.497Z,24.97
2019-01-23T07:10:56.270Z,28.94
2019-01-23T07:13:25.830Z,32.72
2019-01-23T07:15:55.361Z,35.98
2019-01-23T07:18:24.896Z,37.82
2019-01-23T07:20:55.676Z,36.90
2019-01-23T07:23:25.188Z,37.36
2019-01-23T07:25:54.712Z,38.87
2019-01-23T07:28:24.256Z,41.08
2019-01-23T07:30:53.779Z,42.42
2019-01-23T07:33:23.331Z,42.04
2019-01-23T07:35:52.887Z,41.31
2019-01-23T07:38:22.481Z,41.59
2019-01-23T07:40:51.996Z,41.59
2019-01-23T07:43:21.543Z,42.33
2019-01-23T07:45:52.787Z,44.78
2019-01-23T07:48:22.327Z,51.01
2019-01-23T07:50:51.894Z,56.63
2019-01-23T07:53:21.416Z,53.73
2019-01-23T07:55:50.932Z,52.25
2019-01-23T07:58:20.543Z,52.45
2019-01-23T08:00:50.050Z,57.37
2019-01-23T08:03:19.555Z,58.41
2019-01-23T08:05:49.116Z,60.24
2019-01-23T08:08:18.629Z,57.89
2019-01-23T08:10:48.150Z,54.01
2019-01-23T08:13:17.732Z,56.00
2019-01-23T08:15:47.355Z,61.97
2019-01-23T08:18:16.848Z,63.78
2019-01-23T08:20:46.539Z,62.88
2019-01-23T08:23:16.104Z,59.72
2019-01-23T08:25:45.632Z,61.52
2019-01-23T08:28:15.200Z,62.77
2019-01-23T08:30:44.837Z,63.18
2019-01-23T08:33:14.348Z,65.32
2019-01-23T08:35:43.968Z,70.36
2019-01-23T08:38:13.506Z,72.03
2019-01-23T08:40:43.061Z,76.39
2019-01-23T08:43:12.566Z,81.53
2019-01-23T08:45:42.090Z,83.03
2019-01-23T08:48:14.256Z,84.74
2019-01-23T08:50:45.417Z,85.71
2019-01-23T08:53:15.139Z,85.69
2019-01-23T08:55:44.706Z,85.56
2019-01-23T08:58:14.241Z,85.45
2019-01-23T09:00:45.985Z,85.26
2019-01-23T09:03:15.936Z,85.11
2019-01-23T09:05:45.479Z,85.13
2019-01-23T09:08:15.146Z,84.35
2019-01-23T09:10:44.812Z,84.39
2019-01-23T09:13:14.537Z,84.60
2019-01-23T09:15:45.309Z,85.80
2019-01-23T09:18:14.911Z,85.25
2019-01-23T09:20:44.432Z,83.40
2019-01-23T09:23:13.974Z,84.01
2019-01-23T09:25:49.503Z,84.80
2019-01-23T09:28:14.712Z,84.50
2019-01-23T09:30:52.756Z,83.61
2019-01-23T09:34:28.066Z,83.72
2019-01-23T09:37:38.906Z,84.72
2019-01-23T09:40:56.086Z,84.74
2019-01-23T09:44:18.643Z,81.87
2019-01-23T09:47:24.833Z,78.38
2019-01-23T09:50:28.559Z,69.22
2019-01-23T09:53:02.665Z,67.70
2019-01-23T09:55:32.243Z,68.74
2019-01-23T09:58:05.672Z,68.30
2019-01-23T10:00:35.184Z,69.06
2019-01-23T10:03:04.853Z,69.41
2019-01-23T10:05:34.353Z,70.01
2019-01-23T10:08:03.849Z,73.51
2019-01-23T10:10:33.485Z,72.13
2019-01-23T10:13:03.028Z,73.06
2019-01-23T10:15:39.910Z,73.56
2019-01-23T10:18:09.472Z,75.44
2019-01-23T10:20:39.085Z,72.14
2019-01-23T10:23:08.833Z,77.10
2019-01-23T10:25:39.683Z,74.63
2019-01-23T10:28:09.196Z,75.92
2019-01-23T10:30:38.709Z,74.59
2019-01-23T10:33:08.265Z,73.94
2019-01-23T10:35:37.785Z,76.25
2019-01-23T10:38:07.342Z,81.13
2019-01-23T10:40:36.894Z,81.78
2019-01-23T10:43:06.814Z,76.71
2019-01-23T10:45:36.480Z,78.19
2019-01-23T10:48:06.073Z,77.99
2019-01-23T10:50:35.592Z,79.84
2019-01-23T10:53:05.271Z,81.02
2019-01-23T10:55:34.895Z,80.93
2019-01-23T10:58:04.948Z,78.49
2019-01-23T11:00:34.694Z,79.51
2019-01-23T11:03:09.987Z,81.60
2019-01-23T11:05:35.547Z,80.42
2019-01-23T11:08:06.833Z,83.36
2019-01-23T11:10:36.356Z,80.89
2019-01-23T11:13:06.021Z,79.07
2019-01-23T11:15:35.578Z,79.85
2019-01-23T11:18:06.011Z,82.01
2019-01-23T11:20:35.541Z,84.04
2019-01-23T11:23:05.292Z,82.24
2019-01-23T11:25:34.799Z,83.52
2019-01-23T11:28:04.709Z,84.04
2019-01-23T11:30:34.269Z,81.74
2019-01-23T11:33:03.792Z,79.34
2019-01-23T11:35:33.304Z,78.93
2019-01-23T11:38:02.894Z,78.65
2019-01-23T11:40:32.789Z,79.51
2019-01-23T11:43:02.316Z,80.44
2019-01-23T11:45:31.872Z,79.14
2019-01-23T11:48:01.447Z,79.53
2019-01-23T11:50:30.996Z,79.32
2019-01-23T11:53:00.537Z,79.86
2019-01-23T11:55:31.368Z,81.95
2019-01-23T11:58:00.909Z,81.63
2019-01-23T12:00:33.093Z,81.29
2019-01-23T12:03:02.687Z,81.25
2019-01-23T12:05:32.197Z,80.77
2019-01-23T12:08:01.705Z,81.10
2019-01-23T12:10:31.291Z,80.53
2019-01-23T12:13:00.923Z,81.79
2019-01-23T12:15:30.611Z,81.82
2019-01-23T12:18:00.437Z,81.94
2019-01-23T12:20:30.033Z,81.80
2019-01-23T12:22:59.577Z,81.66
2019-01-23T12:25:29.101Z,82.96
2019-01-23T12:27:58.701Z,81.61
2019-01-23T12:30:30.886Z,80.43
2019-01-23T12:33:00.401Z,79.93
2019-01-23T12:35:29.953Z,79.37
2019-01-23T12:37:59.522Z,79.77
2019-01-23T12:40:29.038Z,80.04
2019-01-23T12:42:58.682Z,79.46
2019-01-23T12:45:29.266Z,78.12
2019-01-23T12:47:58.767Z,79.29
2019-01-23T12:50:30.999Z,78.99
2019-01-23T12:53:00.613Z,80.30
2019-01-23T12:55:30.115Z,80.24
2019-01-23T12:57:59.774Z,80.78
2019-01-23T13:00:30.892Z,80.67
2019-01-23T13:03:01.013Z,81.42
2019-01-23T13:05:31.072Z,81.95
2019-01-23T13:08:00.584Z,82.39
2019-01-23T13:10:31.327Z,83.27
2019-01-23T13:13:01.112Z,83.12
2019-01-23T13:15:30.636Z,83.30
2019-01-23T13:18:00.132Z,83.10
2019-01-23T13:20:29.798Z,82.57
2019-01-23T13:22:59.308Z,81.60
2019-01-23T13:25:29.957Z,81.01
2019-01-23T13:28:02.969Z,80.81
2019-01-23T13:30:32.519Z,81.04
2019-01-23T13:33:02.325Z,80.93
2019-01-23T13:35:34.739Z,80.77
2019-01-23T13:38:04.912Z,80.76
2019-01-23T13:40:36.317Z,80.56
2019-01-23T13:43:07.560Z,81.28
2019-01-23T13:45:38.417Z,81.55
2019-01-23T13:48:09.858Z,82.34
2019-01-23T13:50:39.521Z,82.70
2019-01-23T13:53:09.020Z,83.40
2019-01-23T13:55:39.948Z,83.67
2019-01-23T13:58:09.555Z,83.39
2019-01-23T14:00:41.175Z,83.11
2019-01-23T14:03:10.830Z,82.71
2019-01-23T14:05:40.328Z,81.60
2019-01-23T14:08:10.823Z,80.87
2019-01-23T14:10:40.430Z,80.90
2019-01-23T14:13:10.156Z,81.06
2019-01-23T14:15:40.582Z,80.87
2019-01-23T14:18:10.333Z,80.56
2019-01-23T14:20:39.839Z,79.84
2019-01-23T14:23:09.360Z,79.24
2019-01-23T14:25:38.913Z,78.75
2019-01-23T14:28:08.520Z,78.32
2019-01-23T14:30:44.911Z,77.40
2019-01-23T14:33:15.019Z,76.79
2019-01-23T14:35:45.959Z,77.08
2019-01-23T14:38:15.596Z,77.02
2019-01-23T14:40:45.144Z,76.57
2019-01-23T14:43:14.697Z,76.27
2019-01-23T14:45:44.185Z,75.02
2019-01-23T14:48:13.693Z,74.37
2019-01-23T14:50:43.226Z,73.98
2019-01-23T14:53:14.397Z,73.63
2019-01-23T14:55:43.912Z,73.21
2019-01-23T14:58:13.475Z,73.55
2019-01-23T15:00:43.180Z,74.27
2019-01-23T15:03:12.700Z,74.22
2019-01-23T15:05:42.268Z,74.73
2019-01-23T15:08:11.771Z,74.54
2019-01-23T15:10:41.338Z,74.37
2019-01-23T15:13:10.891Z,73.86
2019-01-23T15:15:40.391Z,73.76
2019-01-23T15:18:10.935Z,74.40
2019-01-23T15:20:41.163Z,74.58
2019-01-23T15:23:10.659Z,74.74
2019-01-23T15:25:40.323Z,74.26
2019-01-23T15:28:09.991Z,73.12
2019-01-23T15:30:39.800Z,72.12
2019-01-23T15:33:09.439Z,70.46
2019-01-23T15:35:38.943Z,69.78
2019-01-23T15:38:08.455Z,69.99
2019-01-23T15:40:39.449Z,70.62
2019-01-23T15:43:08.985Z,70.67
2019-01-23T15:45:38.555Z,71.35
2019-01-23T15:48:09.559Z,71.56
2019-01-23T15:50:39.073Z,72.61
2019-01-23T15:53:11.435Z,72.76
2019-01-23T15:55:41.034Z,73.04
2019-01-23T15:58:10.566Z,73.23
2019-01-23T16:00:40.284Z,73.69
2019-01-23T16:03:09.916Z,72.86
2019-01-23T16:05:42.744Z,72.89
2019-01-23T16:08:12.246Z,72.96
2019-01-23T16:10:43.000Z,72.93
2019-01-23T16:13:12.574Z,73.20
2019-01-23T16:15:42.086Z,72.86
2019-01-23T16:18:11.635Z,72.71
2019-01-23T16:20:41.337Z,73.24
2019-01-23T16:23:10.848Z,72.69
2019-01-23T16:25:41.792Z,72.34
2019-01-23T16:28:11.291Z,71.88
2019-01-23T16:30:41.232Z,71.85
2019-01-23T16:33:10.798Z,71.47
2019-01-23T16:35:40.294Z,71.10
2019-01-23T16:38:11.594Z,70.96
2019-01-23T16:40:42.353Z,71.29
2019-01-23T16:43:12.063Z,71.34
2019-01-23T16:45:41.629Z,71.00
2019-01-23T16:48:11.197Z,70.00
2019-01-23T16:50:42.240Z,71.27
2019-01-23T16:53:11.903Z,71.00
2019-01-23T16:55:41.494Z,70.73
2019-01-23T16:58:11.127Z,70.16
2019-01-23T17:00:41.004Z,70.43
2019-01-23T17:03:11.083Z,71.10
2019-01-23T17:05:40.772Z,71.76
2019-01-23T17:08:11.338Z,71.43
2019-01-23T17:10:40.878Z,71.16
2019-01-23T17:13:10.451Z,70.95
2019-01-23T17:15:40.008Z,71.04
2019-01-23T17:18:09.559Z,71.05
2019-01-23T17:20:45.285Z,71.97
2019-01-23T17:23:14.824Z,70.87
2019-01-23T17:25:45.736Z,71.27
2019-01-23T17:28:16.239Z,71.66
2019-01-23T17:30:45.763Z,70.92
2019-01-23T17:33:16.708Z,70.17
2019-01-23T17:35:46.217Z,70.52
2019-01-23T17:38:15.739Z,70.69
2019-01-23T17:40:46.671Z,70.40
2019-01-23T17:43:16.466Z,70.35
2019-01-23T17:45:46.328Z,70.41
2019-01-23T17:48:16.572Z,70.48
2019-01-23T17:50:46.133Z,70.59
2019-01-23T17:53:15.719Z,70.84
2019-01-23T17:55:45.255Z,70.65
2019-01-23T17:58:15.878Z,70.48
2019-01-23T18:00:53.524Z,70.79
2019-01-23T18:03:23.208Z,71.63
2019-01-23T18:05:52.790Z,72.54
2019-01-23T18:08:22.510Z,72.96
2019-01-23T18:10:52.185Z,73.14
2019-01-23T18:13:21.802Z,73.77
2019-01-23T18:15:51.626Z,74.19
2019-01-23T18:18:21.232Z,75.69
2019-01-23T18:20:50.740Z,75.98
2019-01-23T18:23:20.298Z,76.06
2019-01-23T18:25:49.863Z,76.69
2019-01-23T18:28:19.424Z,77.76
2019-01-23T18:30:59.641Z,78.53
2019-01-23T18:33:45.157Z,79.26
2019-01-23T18:36:45.580Z,79.17
2019-01-23T18:39:56.540Z,79.72
2019-01-23T18:42:41.360Z,81.16
2019-01-23T18:45:29.744Z,83.13
2019-01-23T18:48:35.489Z,83.11
2019-01-23T18:51:44.981Z,82.67
2019-01-23T18:54:15.935Z,82.50
2019-01-23T18:56:45.575Z,83.10
2019-01-23T18:59:15.264Z,82.38
2019-01-23T19:01:44.777Z,81.66
2019-01-23T19:04:14.291Z,81.81
2019-01-23T19:06:43.864Z,82.12
2019-01-23T19:09:13.708Z,82.56
2019-01-23T19:11:43.241Z,82.94
2019-01-23T19:14:14.245Z,81.65
2019-01-23T19:16:43.862Z,82.16
2019-01-23T19:19:13.369Z,82.67
2019-01-23T19:21:42.946Z,82.68
2019-01-23T19:24:12.463Z,83.22
2019-01-23T19:26:41.987Z,83.22
2019-01-23T19:29:12.890Z,82.55
2019-01-23T19:31:42.562Z,82.54
2019-01-23T19:34:12.095Z,82.86
2019-01-23T19:36:43.082Z,82.96
2019-01-23T19:39:12.592Z,82.84
2019-01-23T19:41:42.218Z,82.57
2019-01-23T19:44:11.823Z,82.47
2019-01-23T19:46:41.368Z,82.22
2019-01-23T19:49:10.907Z,82.05
2019-01-23T19:51:40.462Z,81.77
2019-01-23T19:54:11.044Z,80.88
2019-01-23T19:56:40.649Z,80.21
2019-01-23T19:59:10.210Z,79.72
2019-01-23T20:01:39.711Z,80.33
2019-01-23T20:04:09.261Z,80.83
2019-01-23T20:06:38.873Z,80.40
2019-01-23T20:09:10.153Z,80.94
2019-01-23T20:11:40.214Z,80.43
2019-01-23T20:14:09.726Z,79.80
2019-01-23T20:16:39.223Z,79.47
2019-01-23T20:19:12.706Z,79.39
2019-01-23T20:21:42.194Z,79.26
2019-01-23T20:24:11.697Z,79.15
2019-01-23T20:26:41.230Z,79.04
2019-01-23T20:29:10.737Z,79.64
2019-01-23T20:31:40.233Z,80.03
2019-01-23T20:34:09.787Z,79.55
2019-01-23T20:36:39.344Z,79.56
2019-01-23T20:39:11.146Z,80.00
2019-01-23T20:41:40.670Z,80.31
2019-01-23T20:44:10.218Z,80.41
2019-01-23T20:46:39.841Z,80.38
2019-01-23T20:49:09.366Z,80.79
2019-01-23T20:51:38.952Z,81.03
2019-01-23T20:54:08.459Z,81.16
2019-01-23T20:56:38.026Z,81.77
2019-01-23T20:59:07.601Z,81.50
2019-01-23T21:01:37.239Z,81.34
2019-01-23T21:04:06.879Z,81.12
2019-01-23T21:06:36.455Z,81.15
2019-01-23T21:09:09.734Z,81.40
2019-01-23T21:11:39.261Z,82.08
2019-01-23T21:14:08.800Z,81.93
2019-01-23T21:16:38.450Z,81.93
2019-01-23T21:19:07.955Z,82.05
2019-01-23T21:21:37.533Z,82.06
2019-01-23T21:24:07.044Z,82.36
2019-01-23T21:26:36.547Z,82.24
2019-01-23T21:29:06.231Z,82.50
2019-01-23T21:31:35.822Z,82.96
2019-01-23T21:34:05.657Z,82.79
2019-01-23T21:36:35.814Z,82.99
2019-01-23T21:39:08.793Z,83.44
2019-01-23T21:41:38.284Z,83.98
2019-01-23T21:44:07.823Z,83.96
2019-01-23T21:46:37.315Z,84.03
2019-01-23T21:49:06.809Z,84.20
2019-01-23T21:51:36.361Z,84.07
2019-01-23T21:54:06.379Z,84.22
2019-01-23T21:56:35.908Z,84.28
2019-01-23T21:59:06.010Z,84.27
2019-01-23T22:01:35.499Z,84.34
2019-01-23T22:04:05.699Z,84.34
2019-01-23T22:06:35.196Z,84.31
2019-01-23T22:09:06.629Z,84.26
2019-01-23T22:11:36.178Z,84.17
2019-01-23T22:14:06.370Z,83.95
2019-01-23T22:16:35.856Z,83.56
2019-01-23T22:19:06.601Z,83.20
2019-01-23T22:21:36.093Z,83.09
2019-01-23T22:24:05.598Z,82.58
2019-01-23T22:26:36.518Z,82.52
2019-01-23T22:29:06.005Z,82.25
2019-01-23T22:31:35.499Z,82.18
2019-01-23T22:34:05.423Z,82.23
2019-01-23T22:36:34.909Z,81.70
2019-01-23T22:39:05.891Z,81.81
2019-01-23T22:41:35.448Z,82.24
2019-01-23T22:44:05.038Z,82.31
2019-01-23T22:46:34.552Z,81.91
2019-01-23T22:49:04.191Z,81.71
2019-01-23T22:51:33.682Z,81.86
2019-01-23T22:54:03.233Z,81.73
2019-01-23T22:56:32.734Z,81.08
2019-01-23T22:59:02.217Z,81.46
2019-01-23T23:01:32.436Z,81.51
2019-01-23T23:04:03.515Z,81.78
2019-01-23T23:06:33.451Z,81.67
2019-01-23T23:09:04.078Z,81.77
2019-01-23T23:11:33.570Z,81.99
2019-01-23T23:14:03.059Z,81.75
2019-01-23T23:16:32.597Z,82.04
2019-01-23T23:19:02.137Z,82.20
2019-01-23T23:21:31.637Z,82.39
2019-01-23T23:24:01.172Z,82.50
2019-01-23T23:26:30.663Z,82.51
2019-01-23T23:29:00.171Z,82.65
2019-01-23T23:31:29.702Z,82.52
2019-01-23T23:33:59.193Z,82.62
2019-01-23T23:36:28.677Z,82.38
2019-01-23T23:38:58.206Z,82.56
2019-01-23T23:41:28.127Z,82.65
2019-01-23T23:43:57.619Z,82.88
2019-01-23T23:46:27.341Z,82.93
2019-01-23T23:48:56.835Z,82.78
2019-01-23T23:51:26.326Z,83.11
2019-01-23T23:53:57.074Z,82.85
2019-01-23T23:56:26.579Z,82.94
2019-01-23T23:58:56.116Z,82.65
